sensor_id;sensor_type;location;lat;lon;timestamp;P1;durP1;ratioP1;P2;durP2;ratioP2
39996;SDS011;25688;52.338;21.072;2023-05-02T00:01:12;16.05;;;7.28;;
39996;SDS011;25688;52.338;21.072;2023-05-02T00:03:38;13.10;;;6.43;;
39996;SDS011;25688;52.338;21.072;2023-05-02T00:06:04;14.90;;;6.63;;
39996;SDS011;25688;52.338;21.072;2023-05-02T00:08:53;15.15;;;7.03;;
39996;SDS011;25688;52.338;21.072;2023-05-02T00:11:21;17.63;;;7.45;;
39996;SDS011;25688;52.338;21.072;2023-05-02T00:13:47;17.35;;;7.22;;
39996;SDS011;25688;52.338;21.072;2023-05-02T00:16:13;15.63;;;7.63;;
39996;SDS011;25688;52.338;21.072;2023-05-02T00:18:54;15.43;;;7.10;;
39996;SDS011;25688;52.338;21.072;2023-05-02T00:21:20;13.85;;;6.88;;
39996;SDS011;25688;52.338;21.072;2023-05-02T00:23:45;13.98;;;6.65;;
39996;SDS011;25688;52.338;21.072;2023-05-02T00:26:11;13.57;;;6.40;;
39996;SDS011;25688;52.338;21.072;2023-05-02T00:29:26;14.95;;;6.60;;
39996;SDS011;25688;52.338;21.072;2023-05-02T00:31:58;15.02;;;6.70;;
39996;SDS011;25688;52.338;21.072;2023-05-02T00:34:37;16.98;;;6.43;;
39996;SDS011;25688;52.338;21.072;2023-05-02T00:37:13;15.05;;;7.55;;
39996;SDS011;25688;52.338;21.072;2023-05-02T00:39:39;14.10;;;6.32;;
39996;SDS011;25688;52.338;21.072;2023-05-02T00:44:59;16.65;;;6.78;;
39996;SDS011;25688;52.338;21.072;2023-05-02T00:47:25;14.68;;;6.00;;
39996;SDS011;25688;52.338;21.072;2023-05-02T00:50:06;14.88;;;6.72;;
39996;SDS011;25688;52.338;21.072;2023-05-02T00:52:50;15.63;;;6.60;;
39996;SDS011;25688;52.338;21.072;2023-05-02T00:55:36;12.68;;;5.57;;
39996;SDS011;25688;52.338;21.072;2023-05-02T00:58:04;14.13;;;6.18;;
39996;SDS011;25688;52.338;21.072;2023-05-02T01:00:35;11.23;;;6.20;;
39996;SDS011;25688;52.338;21.072;2023-05-02T01:03:16;14.55;;;6.72;;
39996;SDS011;25688;52.338;21.072;2023-05-02T01:12:38;13.82;;;5.93;;
39996;SDS011;25688;52.338;21.072;2023-05-02T01:15:22;17.55;;;6.47;;
39996;SDS011;25688;52.338;21.072;2023-05-02T01:17:49;16.48;;;5.70;;
39996;SDS011;25688;52.338;21.072;2023-05-02T01:20:19;15.35;;;5.72;;
39996;SDS011;25688;52.338;21.072;2023-05-02T01:26:14;14.00;;;5.22;;
39996;SDS011;25688;52.338;21.072;2023-05-02T01:29:17;12.15;;;6.22;;
39996;SDS011;25688;52.338;21.072;2023-05-02T01:31:48;12.00;;;5.85;;
39996;SDS011;25688;52.338;21.072;2023-05-02T01:36:49;14.73;;;6.00;;
39996;SDS011;25688;52.338;21.072;2023-05-02T01:42:15;11.38;;;5.88;;
39996;SDS011;25688;52.338;21.072;2023-05-02T01:44:49;11.93;;;5.65;;
39996;SDS011;25688;52.338;21.072;2023-05-02T01:50:07;12.07;;;5.27;;
39996;SDS011;25688;52.338;21.072;2023-05-02T01:52:35;9.88;;;5.43;;
39996;SDS011;25688;52.338;21.072;2023-05-02T01:58:00;13.10;;;5.57;;
39996;SDS011;25688;52.338;21.072;2023-05-02T02:00:36;16.70;;;6.30;;
39996;SDS011;25688;52.338;21.072;2023-05-02T02:03:15;14.38;;;5.60;;
39996;SDS011;25688;52.338;21.072;2023-05-02T02:05:43;12.40;;;6.22;;
39996;SDS011;25688;52.338;21.072;2023-05-02T02:08:22;11.23;;;5.53;;
39996;SDS011;25688;52.338;21.072;2023-05-02T02:11:08;12.63;;;5.53;;
39996;SDS011;25688;52.338;21.072;2023-05-02T02:13:58;18.83;;;6.90;;
39996;SDS011;25688;52.338;21.072;2023-05-02T02:16:46;16.60;;;5.75;;
39996;SDS011;25688;52.338;21.072;2023-05-02T02:19:26;11.85;;;5.72;;
39996;SDS011;25688;52.338;21.072;2023-05-02T02:22:13;15.82;;;6.35;;
39996;SDS011;25688;52.338;21.072;2023-05-02T02:24:48;11.43;;;5.53;;
39996;SDS011;25688;52.338;21.072;2023-05-02T02:27:28;13.38;;;6.30;;
39996;SDS011;25688;52.338;21.072;2023-05-02T02:29:59;14.80;;;6.20;;
39996;SDS011;25688;52.338;21.072;2023-05-02T02:32:25;11.20;;;5.60;;
39996;SDS011;25688;52.338;21.072;2023-05-02T02:35:03;17.10;;;6.13;;
39996;SDS011;25688;52.338;21.072;2023-05-02T02:40:48;11.95;;;5.57;;
39996;SDS011;25688;52.338;21.072;2023-05-02T02:43:26;11.70;;;5.40;;
39996;SDS011;25688;52.338;21.072;2023-05-02T02:46:16;11.65;;;5.38;;
39996;SDS011;25688;52.338;21.072;2023-05-02T02:58:13;13.43;;;5.43;;
39996;SDS011;25688;52.338;21.072;2023-05-02T03:00:48;14.20;;;5.32;;
39996;SDS011;25688;52.338;21.072;2023-05-02T03:03:14;16.58;;;7.13;;
39996;SDS011;25688;52.338;21.072;2023-05-02T03:05:59;13.13;;;5.63;;
39996;SDS011;25688;52.338;21.072;2023-05-02T03:11:31;11.73;;;5.97;;
39996;SDS011;25688;52.338;21.072;2023-05-02T03:16:47;11.75;;;5.55;;
39996;SDS011;25688;52.338;21.072;2023-05-02T03:25:57;15.32;;;5.80;;
39996;SDS011;25688;52.338;21.072;2023-05-02T03:28:23;14.60;;;5.90;;
39996;SDS011;25688;52.338;21.072;2023-05-02T03:39:47;10.52;;;5.32;;
39996;SDS011;25688;52.338;21.072;2023-05-02T03:42:12;11.38;;;5.70;;
39996;SDS011;25688;52.338;21.072;2023-05-02T03:44:53;16.08;;;6.30;;
39996;SDS011;25688;52.338;21.072;2023-05-02T03:50:42;13.73;;;5.88;;
39996;SDS011;25688;52.338;21.072;2023-05-02T03:53:08;12.40;;;6.47;;
39996;SDS011;25688;52.338;21.072;2023-05-02T03:55:49;12.73;;;6.15;;
39996;SDS011;25688;52.338;21.072;2023-05-02T03:58:18;13.50;;;5.68;;
39996;SDS011;25688;52.338;21.072;2023-05-02T04:00:45;17.77;;;6.80;;
39996;SDS011;25688;52.338;21.072;2023-05-02T04:05:46;14.48;;;6.13;;
39996;SDS011;25688;52.338;21.072;2023-05-02T04:14:12;16.75;;;6.05;;
39996;SDS011;25688;52.338;21.072;2023-05-02T04:16:38;13.23;;;6.22;;
39996;SDS011;25688;52.338;21.072;2023-05-02T04:21:49;19.55;;;6.32;;
39996;SDS011;25688;52.338;21.072;2023-05-02T04:24:19;17.52;;;6.15;;
39996;SDS011;25688;52.338;21.072;2023-05-02T04:29:32;15.70;;;7.28;;
39996;SDS011;25688;52.338;21.072;2023-05-02T04:34:36;12.75;;;6.38;;
39996;SDS011;25688;52.338;21.072;2023-05-02T04:37:01;13.30;;;6.40;;
39996;SDS011;25688;52.338;21.072;2023-05-02T04:39:27;12.85;;;6.10;;
39996;SDS011;25688;52.338;21.072;2023-05-02T04:41:56;14.02;;;6.80;;
39996;SDS011;25688;52.338;21.072;2023-05-02T04:44:21;14.10;;;6.03;;
39996;SDS011;25688;52.338;21.072;2023-05-02T04:46:56;14.13;;;8.43;;
39996;SDS011;25688;52.338;21.072;2023-05-02T04:49:27;17.05;;;6.53;;
39996;SDS011;25688;52.338;21.072;2023-05-02T04:52:05;16.95;;;6.45;;
39996;SDS011;25688;52.338;21.072;2023-05-02T04:54:31;16.98;;;6.90;;
39996;SDS011;25688;52.338;21.072;2023-05-02T04:57:31;12.25;;;6.65;;
39996;SDS011;25688;52.338;21.072;2023-05-02T05:00:08;15.35;;;7.00;;
39996;SDS011;25688;52.338;21.072;2023-05-02T05:02:34;12.45;;;6.13;;
39996;SDS011;25688;52.338;21.072;2023-05-02T05:05:00;12.07;;;5.60;;
39996;SDS011;25688;52.338;21.072;2023-05-02T05:07:26;15.02;;;6.75;;
39996;SDS011;25688;52.338;21.072;2023-05-02T05:09:57;14.35;;;6.60;;
39996;SDS011;25688;52.338;21.072;2023-05-02T05:12:28;17.15;;;6.72;;
39996;SDS011;25688;52.338;21.072;2023-05-02T05:14:54;15.52;;;7.80;;
39996;SDS011;25688;52.338;21.072;2023-05-02T05:17:32;16.52;;;6.88;;
39996;SDS011;25688;52.338;21.072;2023-05-02T05:20:13;14.85;;;6.68;;
39996;SDS011;25688;52.338;21.072;2023-05-02T05:22:39;17.15;;;6.28;;
39996;SDS011;25688;52.338;21.072;2023-05-02T05:25:08;13.45;;;5.82;;
39996;SDS011;25688;52.338;21.072;2023-05-02T05:27:34;12.60;;;6.22;;
39996;SDS011;25688;52.338;21.072;2023-05-02T05:32:55;12.30;;;6.07;;
39996;SDS011;25688;52.338;21.072;2023-05-02T05:38:57;13.30;;;6.45;;
39996;SDS011;25688;52.338;21.072;2023-05-02T05:41:23;12.60;;;5.88;;
39996;SDS011;25688;52.338;21.072;2023-05-02T05:49:54;11.77;;;5.53;;
39996;SDS011;25688;52.338;21.072;2023-05-02T05:55:11;11.55;;;5.82;;
39996;SDS011;25688;52.338;21.072;2023-05-02T06:06:23;13.32;;;5.88;;
39996;SDS011;25688;52.338;21.072;2023-05-02T06:08:49;15.05;;;5.55;;
39996;SDS011;25688;52.338;21.072;2023-05-02T06:11:24;14.77;;;6.32;;
39996;SDS011;25688;52.338;21.072;2023-05-02T06:13:55;12.25;;;5.60;;
39996;SDS011;25688;52.338;21.072;2023-05-02T06:19:14;13.95;;;5.40;;
39996;SDS011;25688;52.338;21.072;2023-05-02T06:21:43;14.05;;;6.07;;
39996;SDS011;25688;52.338;21.072;2023-05-02T06:24:23;9.48;;;5.10;;
39996;SDS011;25688;52.338;21.072;2023-05-02T06:29:40;15.68;;;5.97;;
39996;SDS011;25688;52.338;21.072;2023-05-02T06:32:20;12.52;;;5.35;;
39996;SDS011;25688;52.338;21.072;2023-05-02T06:37:40;14.13;;;5.90;;
39996;SDS011;25688;52.338;21.072;2023-05-02T06:40:06;11.50;;;5.60;;
39996;SDS011;25688;52.338;21.072;2023-05-02T06:42:33;10.45;;;5.07;;
39996;SDS011;25688;52.338;21.072;2023-05-02T06:44:58;10.90;;;5.15;;
39996;SDS011;25688;52.338;21.072;2023-05-02T06:50:44;14.50;;;5.45;;
39996;SDS011;25688;52.338;21.072;2023-05-02T06:54:22;12.13;;;5.40;;
39996;SDS011;25688;52.338;21.072;2023-05-02T07:03:07;12.80;;;5.10;;
39996;SDS011;25688;52.338;21.072;2023-05-02T07:05:41;11.98;;;5.45;;
39996;SDS011;25688;52.338;21.072;2023-05-02T07:08:07;13.30;;;5.85;;
39996;SDS011;25688;52.338;21.072;2023-05-02T07:10:33;10.73;;;5.13;;
39996;SDS011;25688;52.338;21.072;2023-05-02T07:13:04;12.63;;;5.32;;
39996;SDS011;25688;52.338;21.072;2023-05-02T07:15:45;9.30;;;5.15;;
39996;SDS011;25688;52.338;21.072;2023-05-02T07:18:29;12.23;;;5.55;;
39996;SDS011;25688;52.338;21.072;2023-05-02T07:24:20;10.90;;;4.30;;
39996;SDS011;25688;52.338;21.072;2023-05-02T07:26:52;7.93;;;4.25;;
39996;SDS011;25688;52.338;21.072;2023-05-02T07:32:48;8.70;;;5.18;;
39996;SDS011;25688;52.338;21.072;2023-05-02T07:38:11;12.02;;;4.03;;
39996;SDS011;25688;52.338;21.072;2023-05-02T07:43:12;9.18;;;3.88;;
39996;SDS011;25688;52.338;21.072;2023-05-02T07:48:30;8.25;;;3.63;;
39996;SDS011;25688;52.338;21.072;2023-05-02T07:54:19;10.88;;;3.88;;
39996;SDS011;25688;52.338;21.072;2023-05-02T07:56:51;6.15;;;2.83;;
39996;SDS011;25688;52.338;21.072;2023-05-02T08:02:42;7.80;;;2.88;;
39996;SDS011;25688;52.338;21.072;2023-05-02T08:05:37;7.20;;;3.00;;
39996;SDS011;25688;52.338;21.072;2023-05-02T08:11:35;6.95;;;2.97;;
39996;SDS011;25688;52.338;21.072;2023-05-02T08:14:00;8.63;;;3.00;;
39996;SDS011;25688;52.338;21.072;2023-05-02T08:16:26;7.80;;;3.38;;
39996;SDS011;25688;52.338;21.072;2023-05-02T08:18:54;11.82;;;3.90;;
39996;SDS011;25688;52.338;21.072;2023-05-02T08:21:20;11.30;;;3.72;;
39996;SDS011;25688;52.338;21.072;2023-05-02T08:23:45;16.60;;;4.13;;
39996;SDS011;25688;52.338;21.072;2023-05-02T08:29:51;9.68;;;4.10;;
39996;SDS011;25688;52.338;21.072;2023-05-02T08:32:38;9.05;;;3.58;;
39996;SDS011;25688;52.338;21.072;2023-05-02T08:35:07;7.00;;;3.77;;
39996;SDS011;25688;52.338;21.072;2023-05-02T09:01:34;12.18;;;4.53;;
39996;SDS011;25688;52.338;21.072;2023-05-02T10:53:41;9.40;;;5.43;;
39996;SDS011;25688;52.338;21.072;2023-05-02T10:56:12;11.07;;;6.10;;
39996;SDS011;25688;52.338;21.072;2023-05-02T11:09:28;10.55;;;6.22;;
39996;SDS011;25688;52.338;21.072;2023-05-02T11:23:41;15.27;;;9.65;;
39996;SDS011;25688;52.338;21.072;2023-05-02T11:35:18;15.70;;;9.93;;
39996;SDS011;25688;52.338;21.072;2023-05-02T11:40:50;15.27;;;10.55;;
39996;SDS011;25688;52.338;21.072;2023-05-02T12:43:27;14.55;;;10.73;;
39996;SDS011;25688;52.338;21.072;2023-05-02T13:00:03;8.75;;;5.05;;
39996;SDS011;25688;52.338;21.072;2023-05-02T13:02:49;8.98;;;4.78;;
39996;SDS011;25688;52.338;21.072;2023-05-02T13:15:21;9.05;;;4.53;;
39996;SDS011;25688;52.338;21.072;2023-05-02T13:17:53;9.82;;;5.60;;
39996;SDS011;25688;52.338;21.072;2023-05-02T13:20:19;9.65;;;5.15;;
39996;SDS011;25688;52.338;21.072;2023-05-02T13:22:45;10.90;;;5.15;;
39996;SDS011;25688;52.338;21.072;2023-05-02T13:52:58;7.40;;;3.47;;
39996;SDS011;25688;52.338;21.072;2023-05-02T13:56:10;7.95;;;3.60;;
39996;SDS011;25688;52.338;21.072;2023-05-02T14:01:05;7.90;;;4.47;;
39996;SDS011;25688;52.338;21.072;2023-05-02T14:03:42;7.45;;;4.38;;
39996;SDS011;25688;52.338;21.072;2023-05-02T14:06:09;7.82;;;4.15;;
39996;SDS011;25688;52.338;21.072;2023-05-02T14:08:41;8.85;;;4.28;;
39996;SDS011;25688;52.338;21.072;2023-05-02T14:11:16;7.85;;;3.83;;
39996;SDS011;25688;52.338;21.072;2023-05-02T14:16:54;7.43;;;4.47;;
39996;SDS011;25688;52.338;21.072;2023-05-02T14:29:16;8.25;;;4.85;;
39996;SDS011;25688;52.338;21.072;2023-05-02T14:34:23;7.63;;;4.35;;
39996;SDS011;25688;52.338;21.072;2023-05-02T14:44:53;10.32;;;5.15;;
39996;SDS011;25688;52.338;21.072;2023-05-02T15:06:12;8.68;;;5.40;;
39996;SDS011;25688;52.338;21.072;2023-05-02T15:08:41;9.20;;;5.22;;
39996;SDS011;25688;52.338;21.072;2023-05-02T15:11:08;8.82;;;4.65;;
39996;SDS011;25688;52.338;21.072;2023-05-02T15:13:40;10.07;;;4.55;;
39996;SDS011;25688;52.338;21.072;2023-05-02T15:16:06;8.50;;;4.90;;
39996;SDS011;25688;52.338;21.072;2023-05-02T15:23:44;10.82;;;5.15;;
39996;SDS011;25688;52.338;21.072;2023-05-02T15:26:11;11.05;;;5.25;;
39996;SDS011;25688;52.338;21.072;2023-05-02T16:00:31;11.40;;;4.88;;
39996;SDS011;25688;52.338;21.072;2023-05-02T17:01:27;11.38;;;5.75;;
39996;SDS011;25688;52.338;21.072;2023-05-02T17:13:33;20.08;;;8.90;;
39996;SDS011;25688;52.338;21.072;2023-05-02T17:16:02;22.85;;;9.70;;
39996;SDS011;25688;52.338;21.072;2023-05-02T17:18:28;25.00;;;10.07;;
39996;SDS011;25688;52.338;21.072;2023-05-02T17:20:54;28.23;;;10.52;;
39996;SDS011;25688;52.338;21.072;2023-05-02T17:23:20;30.95;;;11.55;;
39996;SDS011;25688;52.338;21.072;2023-05-02T17:25:46;31.30;;;11.32;;
39996;SDS011;25688;52.338;21.072;2023-05-02T17:28:15;29.60;;;10.70;;
39996;SDS011;25688;52.338;21.072;2023-05-02T17:30:45;27.88;;;11.52;;
39996;SDS011;25688;52.338;21.072;2023-05-02T17:33:11;26.38;;;10.25;;
39996;SDS011;25688;52.338;21.072;2023-05-02T17:43:01;17.30;;;8.60;;
39996;SDS011;25688;52.338;21.072;2023-05-02T17:45:27;17.27;;;8.32;;
39996;SDS011;25688;52.338;21.072;2023-05-02T17:47:56;13.50;;;7.38;;
39996;SDS011;25688;52.338;21.072;2023-05-02T17:50:21;13.80;;;7.25;;
39996;SDS011;25688;52.338;21.072;2023-05-02T17:52:47;14.85;;;7.38;;
39996;SDS011;25688;52.338;21.072;2023-05-02T17:58:25;17.60;;;8.20;;
39996;SDS011;25688;52.338;21.072;2023-05-02T18:07:08;13.50;;;7.50;;
39996;SDS011;25688;52.338;21.072;2023-05-02T18:09:34;14.75;;;7.40;;
39996;SDS011;25688;52.338;21.072;2023-05-02T18:12:05;15.30;;;8.27;;
39996;SDS011;25688;52.338;21.072;2023-05-02T18:14:43;13.95;;;7.90;;
39996;SDS011;25688;52.338;21.072;2023-05-02T18:17:09;14.88;;;7.70;;
39996;SDS011;25688;52.338;21.072;2023-05-02T18:19:35;17.00;;;7.80;;
39996;SDS011;25688;52.338;21.072;2023-05-02T18:22:15;15.50;;;7.35;;
39996;SDS011;25688;52.338;21.072;2023-05-02T18:28:48;12.93;;;7.13;;
39996;SDS011;25688;52.338;21.072;2023-05-02T18:40:08;15.55;;;8.32;;
39996;SDS011;25688;52.338;21.072;2023-05-02T18:42:34;16.00;;;8.38;;
39996;SDS011;25688;52.338;21.072;2023-05-02T18:45:18;14.38;;;8.00;;
39996;SDS011;25688;52.338;21.072;2023-05-02T18:47:51;12.40;;;7.05;;
39996;SDS011;25688;52.338;21.072;2023-05-02T19:00:18;11.00;;;6.57;;
39996;SDS011;25688;52.338;21.072;2023-05-02T19:05:15;13.32;;;6.82;;
39996;SDS011;25688;52.338;21.072;2023-05-02T19:07:41;13.57;;;6.80;;
39996;SDS011;25688;52.338;21.072;2023-05-02T19:10:10;17.23;;;8.32;;
39996;SDS011;25688;52.338;21.072;2023-05-02T19:12:36;18.40;;;8.75;;
39996;SDS011;25688;52.338;21.072;2023-05-02T19:15:02;15.68;;;6.65;;
39996;SDS011;25688;52.338;21.072;2023-05-02T19:17:29;13.27;;;7.57;;
39996;SDS011;25688;52.338;21.072;2023-05-02T19:19:54;15.25;;;8.10;;
39996;SDS011;25688;52.338;21.072;2023-05-02T19:22:20;12.77;;;8.07;;
39996;SDS011;25688;52.338;21.072;2023-05-02T19:24:47;13.80;;;7.05;;
39996;SDS011;25688;52.338;21.072;2023-05-02T19:27:13;13.82;;;8.25;;
39996;SDS011;25688;52.338;21.072;2023-05-02T19:32:43;16.85;;;8.82;;
39996;SDS011;25688;52.338;21.072;2023-05-02T19:35:08;16.73;;;8.25;;
39996;SDS011;25688;52.338;21.072;2023-05-02T19:37:34;15.02;;;7.57;;
39996;SDS011;25688;52.338;21.072;2023-05-02T19:40:00;11.35;;;6.80;;
39996;SDS011;25688;52.338;21.072;2023-05-02T19:42:26;15.15;;;7.97;;
39996;SDS011;25688;52.338;21.072;2023-05-02T19:45:07;17.58;;;8.48;;
39996;SDS011;25688;52.338;21.072;2023-05-02T19:47:46;18.73;;;8.27;;
39996;SDS011;25688;52.338;21.072;2023-05-02T19:50:20;14.80;;;7.57;;
39996;SDS011;25688;52.338;21.072;2023-05-02T19:52:52;15.18;;;8.38;;
39996;SDS011;25688;52.338;21.072;2023-05-02T19:55:44;17.38;;;8.48;;
39996;SDS011;25688;52.338;21.072;2023-05-02T19:58:15;15.10;;;8.48;;
39996;SDS011;25688;52.338;21.072;2023-05-02T20:00:44;13.25;;;7.93;;
39996;SDS011;25688;52.338;21.072;2023-05-02T20:06:28;14.38;;;8.27;;
39996;SDS011;25688;52.338;21.072;2023-05-02T20:12:01;13.82;;;7.95;;
39996;SDS011;25688;52.338;21.072;2023-05-02T20:17:01;13.95;;;8.18;;
39996;SDS011;25688;52.338;21.072;2023-05-02T20:19:40;13.27;;;7.85;;
39996;SDS011;25688;52.338;21.072;2023-05-02T20:25:09;14.10;;;7.80;;
39996;SDS011;25688;52.338;21.072;2023-05-02T20:27:35;15.95;;;8.90;;
39996;SDS011;25688;52.338;21.072;2023-05-02T20:30:01;15.98;;;8.20;;
39996;SDS011;25688;52.338;21.072;2023-05-02T20:32:27;11.23;;;7.05;;
39996;SDS011;25688;52.338;21.072;2023-05-02T20:34:53;16.83;;;8.15;;
39996;SDS011;25688;52.338;21.072;2023-05-02T20:37:19;14.38;;;8.40;;
39996;SDS011;25688;52.338;21.072;2023-05-02T20:42:25;17.75;;;7.97;;
39996;SDS011;25688;52.338;21.072;2023-05-02T20:45:26;11.77;;;7.30;;
39996;SDS011;25688;52.338;21.072;2023-05-02T20:48:14;16.27;;;8.07;;
39996;SDS011;25688;52.338;21.072;2023-05-02T20:51:17;11.10;;;7.43;;
39996;SDS011;25688;52.338;21.072;2023-05-02T20:53:43;14.25;;;8.43;;
39996;SDS011;25688;52.338;21.072;2023-05-02T21:10:43;14.85;;;7.22;;
39996;SDS011;25688;52.338;21.072;2023-05-02T21:13:09;13.80;;;7.15;;
39996;SDS011;25688;52.338;21.072;2023-05-02T21:15:35;10.90;;;5.88;;
39996;SDS011;25688;52.338;21.072;2023-05-02T21:18:04;13.27;;;6.78;;
39996;SDS011;25688;52.338;21.072;2023-05-02T21:24:07;11.43;;;6.40;;
39996;SDS011;25688;52.338;21.072;2023-05-02T21:26:53;12.02;;;6.72;;
39996;SDS011;25688;52.338;21.072;2023-05-02T21:29:19;10.40;;;6.72;;
39996;SDS011;25688;52.338;21.072;2023-05-02T21:31:45;15.07;;;7.00;;
39996;SDS011;25688;52.338;21.072;2023-05-02T21:34:12;15.77;;;6.28;;
39996;SDS011;25688;52.338;21.072;2023-05-02T21:36:38;11.13;;;6.43;;
39996;SDS011;25688;52.338;21.072;2023-05-02T21:39:05;10.55;;;6.25;;
39996;SDS011;25688;52.338;21.072;2023-05-02T21:41:52;15.15;;;7.00;;
39996;SDS011;25688;52.338;21.072;2023-05-02T21:44:17;14.10;;;6.68;;
39996;SDS011;25688;52.338;21.072;2023-05-02T21:50:00;12.80;;;6.80;;
39996;SDS011;25688;52.338;21.072;2023-05-02T21:52:41;17.92;;;6.70;;
39996;SDS011;25688;52.338;21.072;2023-05-02T21:58:40;13.68;;;6.00;;
39996;SDS011;25688;52.338;21.072;2023-05-02T22:01:16;13.65;;;5.38;;
